Kinnelon, New Jersey
Current Conditions -  °F | °C
As of 1:53 PM on Thursday 18 Dec 2014 (Local Time) from KCDW Reporting Station
Few Clouds Few Clouds  
Wind Chill: 31°   Ceiling: Unl
Heat Index: 40°   Visibility: 10mi
Dew Point: 23°   Wind: 16mph
Humidity: 51%   Direction: 320°NW
Pressure: 29.95"   Gusts: 24mph
Location:  40.9863°N, 74.383°W
Report Text: KCDW 181853Z 32014G21KT 10SM FEW038 04/M05 A2995 RMK AO2 SLP147 T00441050
Loading
Personal Weather Stations






























Interactive Weather Map New forecast layout! Learn more

10-Day Weather Forecast

Advertisements
Track Severe Weather on mobile